Keiyo Maru No.8 — JD3763 — position and weather

sailwx.info

Track history (hours):
 
Tides and Currents Weather Stations Pressure Air Temp Water Temp Dewpoint Dewpoint Depression Visibility Wind Speed Wind Dir Waves Ship Positions

Keiyo Maru No.8

Last reported at 2017-Dec-10 10:08 UTC. Time now 2017-Dec-13 07:17 UTC.
Position N 34°53' E 139°48'.

Length 74 m; draft 4.5 m.

Type: Tanker. MMSI: 431005858.

Date/timePositionNaut miles runAvg speedWind from/ knotsBaromVisibWave heightAir tempDewpointWater temp
2017-Dec-10 10:08N 34°53' E 139°48'413.2
2017-Dec-10 09:48N 34°57' E 139°45'412.8
2017-Dec-10 09:30N 35°01' E 139°44'713.7
2017-Dec-10 09:00N 35°08' E 139°46'713.5
2017-Dec-10 08:30N 35°14' E 139°47'713.0
2017-Dec-10 08:00N 35°20' E 139°43'611.4
2017-Dec-10 07:30N 35°25' E 139°45'612.8
2017-Dec-10 07:00N 35°22' E 139°52'1 1.5
2017-Dec-10 06:30N 35°22' E 139°53'0 0.0
2017-Dec-10 06:00N 35°22' E 139°53'0 0.0
2017-Dec-10 05:30N 35°22' E 139°53'0 0.0
2017-Dec-10 05:01N 35°22' E 139°53'0 0.0
2017-Dec-10 04:30N 35°22' E 139°53'0 0.0
2017-Dec-10 04:00N 35°22' E 139°53'0 0.0
2017-Dec-10 03:30N 35°22' E 139°53'0 0.0
2017-Dec-10 03:00N 35°22' E 139°53'0 0.1
2017-Dec-10 02:22N 35°22' E 139°53'0 0.0
2017-Dec-10 01:58N 35°22' E 139°53'0 0.0
2017-Dec-10 01:28N 35°22' E 139°53'0 0.0
2017-Dec-10 00:55N 35°22' E 139°53'0 0.0
2017-Dec-10 00:28N 35°22' E 139°53'0 0.0
2017-Dec-09 23:55N 35°22' E 139°53'0 0.0
2017-Dec-09 23:25N 35°22' E 139°53'0 0.0
2017-Dec-09 22:52N 35°22' E 139°53'0 0.0
2017-Dec-09 22:28N 35°22' E 139°53'0 0.0
2017-Dec-09 21:58N 35°22' E 139°53'2 3.3
2017-Dec-09 21:30N 35°23' E 139°51'1 1.4
2017-Dec-09 20:55N 35°23' E 139°51'0 0.0
2017-Dec-09 20:25N 35°23' E 139°51'0 0.1
2017-Dec-09 19:55N 35°23' E 139°51'0 0.0
2017-Dec-09 19:28N 35°23' E 139°51'0 0.1
2017-Dec-09 18:55N 35°23' E 139°51'0 0.0
2017-Dec-09 18:25N 35°23' E 139°51'0 0.0
2017-Dec-09 17:58N 35°23' E 139°51'0 0.0
2017-Dec-09 17:28N 35°23' E 139°51'1 2.9
2017-Dec-09 17:00N 35°23' E 139°49'611.7
2017-Dec-09 16:30N 35°19' E 139°44'612.4
2017-Dec-09 16:00N 35°13' E 139°47'713.7
2017-Dec-09 15:30N 35°07' E 139°46'714.1
2017-Dec-09 15:00N 34°60' E 139°44'711.8
2017-Dec-09 14:25N 34°53' E 139°47'1012.6
2017-Dec-09 13:36N 34°54' E 139°59'313.5
2017-Dec-09 13:23N 34°55' E 140°02'21 0.8
2017-Dec-08 11:58N 34°51' E 139°38'1912.8
2017-Dec-08 10:30N 34°46' E 139°15'713.4
2017-Dec-08 09:58N 34°42' E 139°09'612.0
2017-Dec-08 09:26N 34°38' E 139°02'612.0
2017-Dec-08 08:58N 34°35' E 138°57'2614.0
2017-Dec-08 07:06N 34°33' E 138°25'713.4
2017-Dec-08 06:35N 34°33' E 138°17'5112.6
2017-Dec-08 02:33N 34°32' E 137°15'212.9
2017-Dec-08 02:24N 34°32' E 137°13'1212.1
2017-Dec-08 01:23N 34°36' E 136°58'511.9
2017-Dec-08 01:00N 34°39' E 137°02'612.3
2017-Dec-08 00:30N 34°42' E 137°08'6 3.2
2017-Dec-07 22:40N 34°43' E 137°15'1 5.2
2017-Dec-07 22:27N 34°43' E 137°14'1 0.1
2017-Dec-07 17:09N 34°43' E 137°13'210.6
2017-Dec-07 16:57N 34°42' E 137°11'1112.6
2017-Dec-07 16:06N 34°37' E 136°59'107 9.8
2017-Dec-07 05:06N 33°53' E 135°01'214.1
2017-Dec-07 04:57N 33°54' E 134°60'1214.3
2017-Dec-07 04:09N 34°03' E 134°50'314.2
2017-Dec-07 03:57N 34°05' E 134°48'1114.0
2017-Dec-07 03:12N 34°13' E 134°40'313.9
2017-Dec-07 02:57N 34°16' E 134°37'713.6
2017-Dec-07 02:26N 34°23' E 134°36'713.9
2017-Dec-07 01:58N 34°29' E 134°36'714.1
2017-Dec-07 01:26N 34°37' E 134°37'713.9
2017-Dec-07 00:57N 34°43' E 134°38'4 6.9
2017-Dec-07 00:24N 34°47' E 134°38'0 0.0
2017-Dec-06 23:58N 34°47' E 134°38'0 0.0
2017-Dec-06 23:30N 34°47' E 134°38'0 0.0
2017-Dec-06 22:48N 34°47' E 134°38'0 0.0
2017-Dec-06 22:30N 34°47' E 134°38'2 3.9
2017-Dec-06 22:00N 34°45' E 134°38'1 1.0
2017-Dec-06 21:08N 34°44' E 134°38'0 0.0
2017-Dec-06 20:50N 34°44' E 134°38'  
2017-Dec-04 10:31N 33°51' E 131°13'713.2
2017-Dec-04 10:00N 33°54' E 131°06'713.3
2017-Dec-04 09:30N 33°59' E 131°00'612.4
2017-Dec-04 09:01N 33°54' E 130°55'3 5.8
2017-Dec-04 08:30N 33°55' E 130°51'0 0.0
2017-Dec-04 08:00N 33°55' E 130°51'0 0.0
2017-Dec-04 07:30N 33°55' E 130°51'0 0.0
2017-Dec-04 07:00N 33°55' E 130°51'0 0.0
2017-Dec-04 06:30N 33°55' E 130°51'0 0.0
2017-Dec-04 06:00N 33°55' E 130°51'0 0.0
2017-Dec-04 05:30N 33°55' E 130°51'0 0.0
2017-Dec-04 05:00N 33°55' E 130°51'0 0.0
2017-Dec-04 04:30N 33°55' E 130°51'0 0.0
2017-Dec-04 04:00N 33°55' E 130°51'0 0.0
2017-Dec-04 03:30N 33°55' E 130°51'0 0.0
2017-Dec-04 03:00N 33°55' E 130°51'2 3.4
2017-Dec-04 02:30N 33°56' E 130°52'2 4.3
2017-Dec-04 02:00N 33°57' E 130°49'0 0.0
2017-Dec-04 01:30N 33°57' E 130°49'0 0.0
2017-Dec-04 01:00N 33°57' E 130°49'0 0.0
2017-Dec-04 00:30N 33°57' E 130°49'0 0.0
2017-Dec-04 00:00N 33°57' E 130°49'0 0.0
2017-Dec-03 23:30N 33°57' E 130°49'0 0.0
2017-Dec-03 23:00N 33°57' E 130°49'0 0.0
2017-Dec-03 22:30N 33°57' E 130°49'1 2.0
2017-Dec-03 22:00N 33°57' E 130°51'3 5.1
2017-Dec-03 21:30N 33°58' E 130°53'0 0.0
2017-Dec-03 21:00N 33°58' E 130°53'0 0.0
2017-Dec-03 20:30N 33°58' E 130°53'0 0.0
2017-Dec-03 19:59N 33°58' E 130°53'0 0.0
2017-Dec-03 19:30N 33°58' E 130°53'0 0.0
2017-Dec-03 19:00N 33°58' E 130°53'0 0.0
2017-Dec-03 18:29N 33°58' E 130°53'0 0.0
2017-Dec-03 18:00N 33°58' E 130°53'0 0.0
2017-Dec-03 17:30N 33°58' E 130°53'0 0.1
2017-Dec-03 16:59N 33°58' E 130°53'2 4.1
2017-Dec-03 16:30N 34°00' E 130°52'713.7
2017-Dec-03 16:00N 34°07' E 130°50'713.7
2017-Dec-03 15:30N 34°14' E 130°49'813.2
2017-Dec-03 14:51N 34°22' E 130°48'411.5
2017-Dec-03 14:30N 34°26' E 130°51'  
Track history (hours):
 
Tides and Currents Weather Stations Pressure Air Temp Water Temp Dewpoint Dewpoint Depression Visibility Wind Speed Wind Dir Waves Ship Positions

Keiyo Maru No.8

Last reported at 2017-Dec-10 10:08 UTC. Time now 2017-Dec-13 07:17 UTC.
Position N 34°53' E 139°48'.

Length 74 m; draft 4.5 m.

Type: Tanker. MMSI: 431005858.

Date/timePositionNaut miles runAvg speedWind from/ knotsBaromVisibWave heightAir tempDewpointWater temp
2017-Dec-10 10:08N 34°53' E 139°48'413.2
2017-Dec-10 09:48N 34°57' E 139°45'412.8
2017-Dec-10 09:30N 35°01' E 139°44'713.7
2017-Dec-10 09:00N 35°08' E 139°46'713.5
2017-Dec-10 08:30N 35°14' E 139°47'713.0
2017-Dec-10 08:00N 35°20' E 139°43'611.4
2017-Dec-10 07:30N 35°25' E 139°45'612.8
2017-Dec-10 07:00N 35°22' E 139°52'1 1.5
2017-Dec-10 06:30N 35°22' E 139°53'0 0.0
2017-Dec-10 06:00N 35°22' E 139°53'0 0.0
2017-Dec-10 05:30N 35°22' E 139°53'0 0.0
2017-Dec-10 05:01N 35°22' E 139°53'0 0.0
2017-Dec-10 04:30N 35°22' E 139°53'0 0.0
2017-Dec-10 04:00N 35°22' E 139°53'0 0.0
2017-Dec-10 03:30N 35°22' E 139°53'0 0.0
2017-Dec-10 03:00N 35°22' E 139°53'0 0.1
2017-Dec-10 02:22N 35°22' E 139°53'0 0.0
2017-Dec-10 01:58N 35°22' E 139°53'0 0.0
2017-Dec-10 01:28N 35°22' E 139°53'0 0.0
2017-Dec-10 00:55N 35°22' E 139°53'0 0.0
2017-Dec-10 00:28N 35°22' E 139°53'0 0.0
2017-Dec-09 23:55N 35°22' E 139°53'0 0.0
2017-Dec-09 23:25N 35°22' E 139°53'0 0.0
2017-Dec-09 22:52N 35°22' E 139°53'0 0.0
2017-Dec-09 22:28N 35°22' E 139°53'0 0.0
2017-Dec-09 21:58N 35°22' E 139°53'2 3.3
2017-Dec-09 21:30N 35°23' E 139°51'1 1.4
2017-Dec-09 20:55N 35°23' E 139°51'0 0.0
2017-Dec-09 20:25N 35°23' E 139°51'0 0.1
2017-Dec-09 19:55N 35°23' E 139°51'0 0.0
2017-Dec-09 19:28N 35°23' E 139°51'0 0.1
2017-Dec-09 18:55N 35°23' E 139°51'0 0.0
2017-Dec-09 18:25N 35°23' E 139°51'0 0.0
2017-Dec-09 17:58N 35°23' E 139°51'0 0.0
2017-Dec-09 17:28N 35°23' E 139°51'1 2.9
2017-Dec-09 17:00N 35°23' E 139°49'611.7
2017-Dec-09 16:30N 35°19' E 139°44'612.4
2017-Dec-09 16:00N 35°13' E 139°47'713.7
2017-Dec-09 15:30N 35°07' E 139°46'714.1
2017-Dec-09 15:00N 34°60' E 139°44'711.8
2017-Dec-09 14:25N 34°53' E 139°47'1012.6
2017-Dec-09 13:36N 34°54' E 139°59'313.5
2017-Dec-09 13:23N 34°55' E 140°02'21 0.8
2017-Dec-08 11:58N 34°51' E 139°38'1912.8
2017-Dec-08 10:30N 34°46' E 139°15'713.4
2017-Dec-08 09:58N 34°42' E 139°09'612.0
2017-Dec-08 09:26N 34°38' E 139°02'612.0
2017-Dec-08 08:58N 34°35' E 138°57'2614.0
2017-Dec-08 07:06N 34°33' E 138°25'713.4
2017-Dec-08 06:35N 34°33' E 138°17'5112.6
2017-Dec-08 02:33N 34°32' E 137°15'212.9
2017-Dec-08 02:24N 34°32' E 137°13'1212.1
2017-Dec-08 01:23N 34°36' E 136°58'511.9
2017-Dec-08 01:00N 34°39' E 137°02'612.3
2017-Dec-08 00:30N 34°42' E 137°08'6 3.2
2017-Dec-07 22:40N 34°43' E 137°15'1 5.2
2017-Dec-07 22:27N 34°43' E 137°14'1 0.1
2017-Dec-07 17:09N 34°43' E 137°13'210.6
2017-Dec-07 16:57N 34°42' E 137°11'1112.6
2017-Dec-07 16:06N 34°37' E 136°59'107 9.8
2017-Dec-07 05:06N 33°53' E 135°01'214.1
2017-Dec-07 04:57N 33°54' E 134°60'1214.3
2017-Dec-07 04:09N 34°03' E 134°50'314.2
2017-Dec-07 03:57N 34°05' E 134°48'1114.0
2017-Dec-07 03:12N 34°13' E 134°40'313.9
2017-Dec-07 02:57N 34°16' E 134°37'713.6
2017-Dec-07 02:26N 34°23' E 134°36'713.9
2017-Dec-07 01:58N 34°29' E 134°36'714.1
2017-Dec-07 01:26N 34°37' E 134°37'713.9
2017-Dec-07 00:57N 34°43' E 134°38'4 6.9
2017-Dec-07 00:24N 34°47' E 134°38'0 0.0
2017-Dec-06 23:58N 34°47' E 134°38'0 0.0
2017-Dec-06 23:30N 34°47' E 134°38'0 0.0
2017-Dec-06 22:48N 34°47' E 134°38'0 0.0
2017-Dec-06 22:30N 34°47' E 134°38'2 3.9
2017-Dec-06 22:00N 34°45' E 134°38'1 1.0
2017-Dec-06 21:08N 34°44' E 134°38'0 0.0
2017-Dec-06 20:50N 34°44' E 134°38'  
2017-Dec-04 10:31N 33°51' E 131°13'713.2
2017-Dec-04 10:00N 33°54' E 131°06'713.3
2017-Dec-04 09:30N 33°59' E 131°00'612.4
2017-Dec-04 09:01N 33°54' E 130°55'3 5.8
2017-Dec-04 08:30N 33°55' E 130°51'0 0.0
2017-Dec-04 08:00N 33°55' E 130°51'0 0.0
2017-Dec-04 07:30N 33°55' E 130°51'0 0.0
2017-Dec-04 07:00N 33°55' E 130°51'0 0.0
2017-Dec-04 06:30N 33°55' E 130°51'0 0.0
2017-Dec-04 06:00N 33°55' E 130°51'0 0.0
2017-Dec-04 05:30N 33°55' E 130°51'0 0.0
2017-Dec-04 05:00N 33°55' E 130°51'0 0.0
2017-Dec-04 04:30N 33°55' E 130°51'0 0.0
2017-Dec-04 04:00N 33°55' E 130°51'0 0.0
2017-Dec-04 03:30N 33°55' E 130°51'0 0.0
2017-Dec-04 03:00N 33°55' E 130°51'2 3.4
2017-Dec-04 02:30N 33°56' E 130°52'2 4.3
2017-Dec-04 02:00N 33°57' E 130°49'0 0.0
2017-Dec-04 01:30N 33°57' E 130°49'0 0.0
2017-Dec-04 01:00N 33°57' E 130°49'0 0.0
2017-Dec-04 00:30N 33°57' E 130°49'0 0.0
2017-Dec-04 00:00N 33°57' E 130°49'0 0.0
2017-Dec-03 23:30N 33°57' E 130°49'0 0.0
2017-Dec-03 23:00N 33°57' E 130°49'0 0.0
2017-Dec-03 22:30N 33°57' E 130°49'1 2.0
2017-Dec-03 22:00N 33°57' E 130°51'3 5.1
2017-Dec-03 21:30N 33°58' E 130°53'0 0.0
2017-Dec-03 21:00N 33°58' E 130°53'0 0.0
2017-Dec-03 20:30N 33°58' E 130°53'0 0.0
2017-Dec-03 19:59N 33°58' E 130°53'0 0.0
2017-Dec-03 19:30N 33°58' E 130°53'0 0.0
2017-Dec-03 19:00N 33°58' E 130°53'0 0.0
2017-Dec-03 18:29N 33°58' E 130°53'0 0.0
2017-Dec-03 18:00N 33°58' E 130°53'0 0.0
2017-Dec-03 17:30N 33°58' E 130°53'0 0.1
2017-Dec-03 16:59N 33°58' E 130°53'2 4.1
2017-Dec-03 16:30N 34°00' E 130°52'713.7
2017-Dec-03 16:00N 34°07' E 130°50'713.7
2017-Dec-03 15:30N 34°14' E 130°49'813.2
2017-Dec-03 14:51N 34°22' E 130°48'411.5
2017-Dec-03 14:30N 34°26' E 130°51'  

Dump ship's entire track history